createdAt,value
2017-07-15T00:00:41.716Z,93.4
2017-07-15T00:01:41.695Z,93.98
2017-07-15T00:02:41.684Z,94.74
2017-07-15T00:03:41.657Z,94.93
2017-07-15T00:04:41.634Z,94.46
2017-07-15T00:05:41.618Z,94.7
2017-07-15T00:06:41.593Z,94.89
2017-07-15T00:07:41.574Z,94.89
2017-07-15T00:08:41.549Z,95.07
2017-07-15T00:09:41.534Z,95.56
2017-07-15T00:10:41.504Z,95.27
2017-07-15T00:11:41.492Z,95.27
2017-07-15T00:12:41.465Z,95.36
2017-07-15T00:13:41.448Z,95.36
2017-07-15T00:14:41.423Z,95.94
2017-07-15T00:15:41.417Z,95.65
2017-07-15T00:16:41.376Z,95.65
2017-07-15T00:17:41.357Z,96.32
2017-07-15T00:18:41.335Z,96.13
2017-07-15T00:19:41.311Z,96.32
2017-07-15T00:20:41.285Z,96.22
2017-07-15T00:21:41.270Z,96.13
2017-07-15T00:22:41.296Z,96.42
2017-07-15T00:23:41.223Z,96.51
2017-07-15T00:24:41.207Z,96.61
2017-07-15T00:25:41.185Z,96.61
2017-07-15T00:26:41.166Z,96.42
2017-07-15T00:27:41.145Z,96.51
2017-07-15T00:28:41.118Z,96.51
2017-07-15T00:29:41.098Z,96.8
2017-07-15T00:30:41.078Z,96.51
2017-07-15T00:31:41.058Z,96.7
2017-07-15T00:32:41.037Z,96.61
2017-07-15T00:33:41.012Z,96.7
2017-07-15T00:34:40.994Z,96.61
2017-07-15T00:35:40.967Z,96.51
2017-07-15T00:36:40.960Z,97.18
2017-07-15T00:37:40.925Z,96.7
2017-07-15T00:38:40.901Z,96.99
2017-07-15T00:39:40.886Z,96.89
2017-07-15T00:40:40.868Z,96.7
2017-07-15T00:41:40.840Z,96.61
2017-07-15T00:42:40.821Z,96.61
2017-07-15T00:43:40.797Z,96.89
2017-07-15T00:44:40.773Z,96.51
2017-07-15T00:45:40.756Z,97.18
2017-07-15T00:46:40.738Z,96.61
2017-07-15T00:47:40.708Z,96.51
2017-07-15T00:48:40.692Z,96.99
2017-07-15T00:49:40.664Z,96.7
2017-07-15T00:50:40.644Z,96.51
2017-07-15T00:51:40.627Z,96.7
2017-07-15T00:52:40.601Z,96.7
2017-07-15T00:53:40.272Z,96.51
2017-07-15T00:54:40.559Z,96.32
2017-07-15T00:55:40.543Z,96.32
2017-07-15T00:56:40.518Z,96.61
2017-07-15T00:57:40.501Z,96.89
2017-07-15T00:58:40.478Z,96.8
2017-07-15T00:59:40.448Z,96.51
2017-07-15T01:00:40.479Z,96.61
2017-07-15T01:01:40.414Z,96.51
2017-07-15T01:02:40.385Z,96.32
2017-07-15T01:03:40.367Z,96.61
2017-07-15T01:04:40.346Z,96.7
2017-07-15T01:05:40.332Z,96.42
2017-07-15T01:06:40.302Z,96.51
2017-07-15T01:07:40.290Z,96.32
2017-07-15T01:08:40.259Z,96.61
2017-07-15T01:09:40.241Z,96.8
2017-07-15T01:10:40.216Z,96.51
2017-07-15T01:11:40.192Z,96.51
2017-07-15T01:12:40.173Z,96.7
2017-07-15T01:13:40.155Z,96.61
2017-07-15T01:14:40.123Z,96.7
2017-07-15T01:15:40.104Z,96.42
2017-07-15T01:16:40.086Z,96.42
2017-07-15T01:17:40.065Z,96.8
2017-07-15T01:18:40.043Z,96.61
2017-07-15T01:19:40.026Z,96.7
2017-07-15T01:20:39.998Z,96.8
2017-07-15T01:21:39.979Z,96.42
2017-07-15T01:22:39.948Z,96.8
2017-07-15T01:23:39.934Z,96.7
2017-07-15T01:24:39.915Z,96.51
2017-07-15T01:25:39.886Z,96.51
2017-07-15T01:26:39.868Z,96.61
2017-07-15T01:27:39.848Z,97.61
2017-07-15T01:28:39.828Z,97.18
2017-07-15T01:29:39.494Z,97.23
2017-07-15T01:30:39.779Z,97.08
2017-07-15T01:31:39.762Z,97.28
2017-07-15T01:32:39.739Z,96.84
2017-07-15T01:33:39.719Z,97.08
2017-07-15T01:34:39.691Z,97.08
2017-07-15T01:35:39.723Z,97.08
2017-07-15T01:36:39.661Z,97.47
2017-07-15T01:37:39.627Z,96.99
2017-07-15T01:38:39.607Z,97.18
2017-07-15T01:39:39.590Z,96.99
2017-07-15T01:40:39.571Z,97.32
2017-07-15T01:41:39.542Z,96.99
2017-07-15T01:42:39.524Z,96.94
2017-07-15T01:43:39.507Z,97.42
2017-07-15T01:44:39.477Z,97.32
2017-07-15T01:45:39.454Z,97.32
2017-07-15T01:46:39.436Z,97.28
2017-07-15T01:47:39.409Z,97.61
2017-07-15T01:48:39.134Z,97.52
2017-07-15T01:49:39.373Z,97.89
2017-07-15T01:50:39.356Z,98.08
2017-07-15T01:51:39.327Z,97.99
2017-07-15T01:52:39.305Z,98.18
2017-07-15T01:53:39.284Z,98.08
2017-07-15T01:54:39.262Z,97.99
2017-07-15T01:55:39.286Z,97.99
2017-07-15T01:56:39.220Z,97.89
2017-07-15T01:57:39.206Z,97.8
2017-07-15T01:58:39.185Z,97.89
2017-07-15T01:59:39.158Z,97.89
2017-07-15T02:00:38.825Z,98.08
2017-07-15T02:01:39.110Z,98.47
2017-07-15T02:02:39.090Z,98.37
2017-07-15T02:03:39.069Z,98.18
2017-07-15T02:04:39.086Z,98.28
2017-07-15T02:05:39.023Z,98.18
2017-07-15T02:06:39.002Z,98.08
2017-07-15T02:07:38.983Z,97.89
2017-07-15T02:08:38.962Z,98.18
2017-07-15T02:09:38.950Z,98.08
2017-07-15T02:10:38.921Z,98.18
2017-07-15T02:11:39.149Z,98.28
2017-07-15T02:12:38.901Z,98.18
2017-07-15T02:13:38.855Z,98.18
2017-07-15T02:14:38.831Z,97.89
2017-07-15T02:15:38.809Z,98.08
2017-07-15T02:16:38.782Z,98.37
2017-07-15T02:17:38.763Z,98.47
2017-07-15T02:18:38.792Z,98.57
2017-07-15T02:19:38.725Z,99.04
2017-07-15T02:20:38.700Z,98.75
2017-07-15T02:21:38.366Z,98.94
2017-07-15T02:22:38.655Z,98.66
2017-07-15T02:23:38.630Z,98.94
2017-07-15T02:24:38.614Z,98.18
2017-07-15T02:25:38.640Z,98.85
2017-07-15T02:26:38.579Z,98.57
2017-07-15T02:27:38.556Z,98.85
2017-07-15T02:28:38.530Z,98.75
2017-07-15T02:29:38.505Z,98.75
2017-07-15T02:30:38.473Z,98.85
2017-07-15T02:31:38.731Z,98.85
2017-07-15T02:32:38.436Z,98.66
2017-07-15T02:33:38.418Z,98.47
2017-07-15T02:34:38.400Z,98.66
2017-07-15T02:35:38.377Z,98.57
2017-07-15T02:36:38.357Z,98.28
2017-07-15T02:37:38.332Z,98.33
2017-07-15T02:38:38.357Z,98.66
2017-07-15T02:39:38.283Z,98.99
2017-07-15T02:40:38.265Z,98.9
2017-07-15T02:41:38.250Z,98.9
2017-07-15T02:42:38.224Z,98.23
2017-07-15T02:43:38.204Z,98.13
2017-07-15T02:44:38.188Z,98.61
2017-07-15T02:45:38.154Z,98.57
2017-07-15T02:46:38.136Z,98.13
2017-07-15T02:47:38.116Z,97.89
2017-07-15T02:48:38.144Z,97.89
2017-07-15T02:49:38.071Z,98.61
2017-07-15T02:50:38.056Z,98.9
2017-07-15T02:51:38.026Z,98.37
2017-07-15T02:52:38.009Z,98.61
2017-07-15T02:53:37.985Z,98.71
2017-07-15T02:54:37.964Z,98.42
2017-07-15T02:55:37.949Z,98.42
2017-07-15T02:56:37.927Z,98.9
2017-07-15T02:57:37.897Z,99.09
2017-07-15T02:58:37.879Z,98.61
2017-07-15T02:59:37.852Z,98.71
2017-07-15T03:00:37.833Z,98.71
2017-07-15T03:01:37.818Z,98.33
2017-07-15T03:02:37.792Z,98.04
2017-07-15T03:03:37.825Z,98.33
2017-07-15T03:04:37.756Z,98.08
2017-07-15T03:05:37.731Z,98.71
2017-07-15T03:06:37.708Z,98.61
2017-07-15T03:07:37.680Z,98.57
2017-07-15T03:08:37.659Z,98.33
2017-07-15T03:09:37.642Z,98.9
2017-07-15T03:10:37.617Z,98.8
2017-07-15T03:11:37.593Z,98.9
2017-07-15T03:12:37.576Z,98.9
2017-07-15T03:13:37.550Z,98.9
2017-07-15T03:14:37.539Z,98.42
2017-07-15T03:15:37.510Z,98.71
2017-07-15T03:16:37.494Z,98.71
2017-07-15T03:17:37.464Z,98.52
2017-07-15T03:18:37.137Z,98.61
2017-07-15T03:19:37.425Z,98.71
2017-07-15T03:20:37.401Z,98.71
2017-07-15T03:21:37.387Z,98.71
2017-07-15T03:22:37.358Z,98.71
2017-07-15T03:23:37.341Z,98.61
2017-07-15T03:24:37.319Z,98.71
2017-07-15T03:25:37.300Z,98.9
2017-07-15T03:26:37.272Z,98.52
2017-07-15T03:27:37.256Z,98.61
2017-07-15T03:28:37.233Z,98.71
2017-07-15T03:29:37.210Z,98.52
2017-07-15T03:30:37.189Z,98.8
2017-07-15T03:31:37.180Z,98.52
2017-07-15T03:32:37.145Z,98.33
2017-07-15T03:33:37.119Z,98.71
2017-07-15T03:34:37.100Z,98.52
2017-07-15T03:35:37.129Z,98.8
2017-07-15T03:36:37.060Z,98.61
2017-07-15T03:37:37.040Z,98.33
2017-07-15T03:38:37.018Z,98.71
2017-07-15T03:39:36.998Z,98.8
2017-07-15T03:40:36.970Z,98.52
2017-07-15T03:41:36.953Z,98.9
2017-07-15T03:42:36.932Z,98.8
2017-07-15T03:43:36.962Z,98.95
2017-07-15T03:44:36.888Z,98.75
2017-07-15T03:45:36.869Z,98.9
2017-07-15T03:46:36.537Z,99.04
2017-07-15T03:47:36.826Z,98.66
2017-07-15T03:48:36.802Z,99.14
2017-07-15T03:49:36.777Z,98.66
2017-07-15T03:50:36.755Z,98.95
2017-07-15T03:51:36.736Z,98.28
2017-07-15T03:52:36.718Z,98.23
2017-07-15T03:53:36.693Z,98.38
2017-07-15T03:54:36.676Z,98.18
2017-07-15T03:55:36.653Z,98.18
2017-07-15T03:56:36.636Z,98.18
2017-07-15T03:57:36.608Z,98.38
2017-07-15T03:58:36.586Z,98.38
2017-07-15T03:59:36.615Z,98.38
2017-07-15T04:00:36.543Z,98.18
2017-07-15T04:01:36.520Z,97.9
2017-07-15T04:02:36.502Z,98.57
2017-07-15T04:03:36.477Z,98.47
2017-07-15T04:04:36.153Z,98.09
2017-07-15T04:05:36.442Z,98.38
2017-07-15T04:06:36.419Z,98.18
2017-07-15T04:07:36.396Z,97.85
2017-07-15T04:08:36.372Z,98.28
2017-07-15T04:09:36.351Z,98.09
2017-07-15T04:10:36.331Z,98.47
2017-07-15T04:11:36.342Z,98.38
2017-07-15T04:12:36.286Z,98.18
2017-07-15T04:13:35.960Z,97.9
2017-07-15T04:14:36.251Z,98.38
2017-07-15T04:15:36.230Z,97.99
2017-07-15T04:16:36.207Z,98.18
2017-07-15T04:17:36.179Z,97.9
2017-07-15T04:18:36.163Z,98.18
2017-07-15T04:19:36.135Z,97.99
2017-07-15T04:20:36.111Z,97.99
2017-07-15T04:21:36.093Z,98.38
2017-07-15T04:22:36.071Z,97.8
2017-07-15T04:23:36.051Z,97.99
2017-07-15T04:24:36.035Z,98.28
2017-07-15T04:25:36.061Z,98.09
2017-07-15T04:26:35.991Z,97.9
2017-07-15T04:27:35.967Z,98.09
2017-07-15T04:28:35.947Z,97.99
2017-07-15T04:29:35.922Z,98.18
2017-07-15T04:30:35.924Z,98.18
2017-07-15T04:31:35.882Z,98.28
2017-07-15T04:32:35.861Z,97.33
2017-07-15T04:33:35.840Z,97.66
2017-07-15T04:34:35.819Z,97.08
2017-07-15T04:35:35.803Z,97.23
2017-07-15T04:36:35.773Z,97.23
2017-07-15T04:37:35.446Z,97.47
2017-07-15T04:38:35.733Z,97.66
2017-07-15T04:39:35.714Z,97.47
2017-07-15T04:40:35.694Z,97.23
2017-07-15T04:41:35.673Z,97.37
2017-07-15T04:42:35.648Z,97.37
2017-07-15T04:43:35.633Z,97.37
2017-07-15T04:44:35.608Z,97.28
2017-07-15T04:45:35.585Z,96.89
2017-07-15T04:46:35.564Z,96.7
2017-07-15T04:47:35.242Z,96.8
2017-07-15T04:48:35.522Z,96.8
2017-07-15T04:49:35.500Z,96.8
2017-07-15T04:50:35.477Z,96.8
2017-07-15T04:51:35.459Z,96.7
2017-07-15T04:52:35.439Z,96.7
2017-07-15T04:53:35.417Z,96.89
2017-07-15T04:54:35.397Z,97.18
2017-07-15T04:55:35.374Z,96.7
2017-07-15T04:56:35.354Z,96.51
2017-07-15T04:57:35.332Z,96.7
2017-07-15T04:58:35.316Z,96.7
2017-07-15T04:59:35.293Z,96.42
2017-07-15T05:00:35.275Z,96.56
2017-07-15T05:01:35.257Z,96.47
2017-07-15T05:02:35.227Z,96.08
2017-07-15T05:03:35.210Z,96.08
2017-07-15T05:04:35.187Z,95.31
2017-07-15T05:05:35.167Z,95.41
2017-07-15T05:06:35.149Z,95.89
2017-07-15T05:07:35.137Z,95.84
2017-07-15T05:08:35.155Z,95.94
2017-07-15T05:09:35.132Z,95.65
2017-07-15T05:10:35.061Z,95.7
2017-07-15T05:11:35.040Z,95.7
2017-07-15T05:12:35.024Z,96.08
2017-07-15T05:13:34.998Z,95.46
2017-07-15T05:14:34.979Z,96.08
2017-07-15T05:15:34.986Z,95.79
2017-07-15T05:16:34.939Z,95.7
2017-07-15T05:17:34.930Z,95.7
2017-07-15T05:18:34.901Z,95.79
2017-07-15T05:19:34.875Z,95.89
2017-07-15T05:20:34.854Z,95.7
2017-07-15T05:21:34.832Z,96.08
2017-07-15T05:22:34.814Z,95.12
2017-07-15T05:23:34.789Z,95.79
2017-07-15T05:24:34.767Z,95.7
2017-07-15T05:25:34.755Z,95.79
2017-07-15T05:26:34.732Z,95.79
2017-07-15T05:27:34.401Z,95.7
2017-07-15T05:28:34.689Z,95.61
2017-07-15T05:29:34.662Z,95.31
2017-07-15T05:30:34.649Z,95.22
2017-07-15T05:31:34.624Z,95.03
2017-07-15T05:32:34.605Z,95.22
2017-07-15T05:33:34.588Z,94.84
2017-07-15T05:34:34.562Z,95.12
2017-07-15T05:35:34.841Z,95.12
2017-07-15T05:36:34.519Z,94.93
2017-07-15T05:37:34.503Z,94.84
2017-07-15T05:38:34.479Z,94.65
2017-07-15T05:39:34.460Z,94.84
2017-07-15T05:40:34.441Z,94.36
2017-07-15T05:41:34.414Z,94.74
2017-07-15T05:42:34.646Z,94.74
2017-07-15T05:43:34.377Z,94.79
2017-07-15T05:44:34.051Z,94.55
2017-07-15T05:45:34.333Z,94.79
2017-07-15T05:46:34.314Z,94.79
2017-07-15T05:47:34.302Z,94.79
2017-07-15T05:48:34.273Z,94.02
2017-07-15T05:49:33.947Z,94.21
2017-07-15T05:50:34.233Z,94.4
2017-07-15T05:51:34.216Z,94.6
2017-07-15T05:52:34.187Z,94.21
2017-07-15T05:53:34.172Z,94.21
2017-07-15T05:54:34.152Z,94.12
2017-07-15T05:55:34.123Z,93.83
2017-07-15T05:56:34.124Z,93.83
2017-07-15T05:57:34.090Z,93.93
2017-07-15T05:58:34.070Z,93.54
2017-07-15T05:59:34.040Z,93.07
2017-07-15T06:00:34.029Z,92.97
2017-07-15T06:01:34.008Z,93.16
2017-07-15T06:02:33.985Z,92.82
2017-07-15T06:03:33.961Z,92.82
2017-07-15T06:04:33.673Z,92.44
2017-07-15T06:05:33.613Z,92.49
2017-07-15T06:06:33.912Z,92.39
2017-07-15T06:07:33.890Z,92.01
2017-07-15T06:08:33.870Z,92.34
2017-07-15T06:09:33.852Z,91.52
2017-07-15T06:10:33.859Z,90.75
2017-07-15T06:11:33.822Z,89.94
2017-07-15T06:12:33.801Z,88.83
2017-07-15T06:13:33.457Z,87.05
2017-07-15T06:14:33.754Z,86.95
2017-07-15T06:15:33.728Z,86.42
2017-07-15T06:16:33.721Z,83.73
2017-07-15T06:17:33.382Z,83.73
2017-07-15T06:18:33.676Z,83.83
2017-07-15T06:19:33.660Z,83.78
2017-07-15T06:20:33.635Z,83.3
2017-07-15T06:21:33.669Z,83.16
2017-07-15T06:22:33.600Z,83.51
2017-07-15T06:23:33.582Z,84.66
2017-07-15T06:24:33.578Z,84.85
2017-07-15T06:25:33.548Z,85.1
2017-07-15T06:26:33.536Z,85.58
2017-07-15T06:27:33.505Z,85.58
2017-07-15T06:28:33.490Z,85.86
2017-07-15T06:29:33.474Z,86.25
2017-07-15T06:30:33.456Z,86.68
2017-07-15T06:31:33.128Z,86.3
2017-07-15T06:32:33.417Z,86.78
2017-07-15T06:33:33.395Z,87.26
2017-07-15T06:34:33.376Z,87.16
2017-07-15T06:35:33.363Z,87.7
2017-07-15T06:36:33.339Z,88.56
2017-07-15T06:37:33.320Z,88.27
2017-07-15T06:38:33.300Z,88.65
2017-07-15T06:39:32.968Z,88.65
2017-07-15T06:40:33.264Z,88.84
2017-07-15T06:41:33.238Z,89.04
2017-07-15T06:42:33.223Z,88.84
2017-07-15T06:43:33.203Z,88.94
2017-07-15T06:44:33.180Z,89.04
2017-07-15T06:45:33.171Z,89.42
2017-07-15T06:46:33.134Z,89.66
2017-07-15T06:47:33.117Z,89.13
2017-07-15T06:48:33.101Z,89.71
2017-07-15T06:49:33.080Z,89.61
2017-07-15T06:50:33.069Z,89.51
2017-07-15T06:51:33.043Z,89.42
2017-07-15T06:52:33.019Z,89.71
2017-07-15T06:53:32.997Z,89.61
2017-07-15T06:54:32.996Z,89.61
2017-07-15T06:55:32.965Z,89.51
2017-07-15T06:56:32.949Z,89.47
2017-07-15T06:57:32.916Z,89.04
2017-07-15T06:58:32.911Z,88.65
2017-07-15T06:59:32.881Z,89.04
2017-07-15T07:00:32.880Z,89.04
2017-07-15T07:01:32.844Z,89.13
2017-07-15T07:02:32.821Z,89.27
2017-07-15T07:03:32.806Z,89.37
2017-07-15T07:04:32.781Z,89.18
2017-07-15T07:05:32.453Z,88.7
2017-07-15T07:06:32.747Z,88.7
2017-07-15T07:07:32.729Z,88.6
2017-07-15T07:08:32.709Z,88.41
2017-07-15T07:09:32.693Z,88.41
2017-07-15T07:10:32.664Z,88.89
2017-07-15T07:11:32.645Z,88.51
2017-07-15T07:12:32.621Z,88.12
2017-07-15T07:13:32.293Z,88.7
2017-07-15T07:14:32.590Z,88.7
2017-07-15T07:15:32.577Z,88.51
2017-07-15T07:16:32.542Z,88.41
2017-07-15T07:17:32.217Z,88.6
2017-07-15T07:18:32.507Z,88.12
2017-07-15T07:19:32.191Z,88.31
2017-07-15T07:20:32.470Z,88.46
2017-07-15T07:21:32.444Z,88.37
2017-07-15T07:22:32.115Z,88.46
2017-07-15T07:23:32.406Z,88.84
2017-07-15T07:24:32.392Z,88.75
2017-07-15T07:25:32.371Z,88.75
2017-07-15T07:26:32.347Z,88.65
2017-07-15T07:27:32.341Z,88.46
2017-07-15T07:28:32.304Z,88.65
2017-07-15T07:29:32.288Z,88.46
2017-07-15T07:30:32.291Z,88.46
2017-07-15T07:31:32.246Z,88.51
2017-07-15T07:32:32.228Z,88.31
2017-07-15T07:33:32.208Z,88.51
2017-07-15T07:34:32.185Z,88.51
2017-07-15T07:35:32.167Z,88.7
2017-07-15T07:36:32.145Z,88.31
2017-07-15T07:37:31.816Z,88.22
2017-07-15T07:38:32.110Z,87.93
2017-07-15T07:39:32.101Z,87.4
2017-07-15T07:40:32.067Z,87.11
2017-07-15T07:41:32.099Z,87.11
2017-07-15T07:42:32.030Z,86.05
2017-07-15T07:43:32.008Z,85.96
2017-07-15T07:44:31.993Z,86.15
2017-07-15T07:45:31.968Z,85.86
2017-07-15T07:46:31.955Z,85.96
2017-07-15T07:47:31.935Z,85.92
2017-07-15T07:48:31.920Z,86.25
2017-07-15T07:49:31.896Z,86.34
2017-07-15T07:50:31.878Z,86.05
2017-07-15T07:51:31.856Z,85.96
2017-07-15T07:52:31.837Z,85.67
2017-07-15T07:53:31.815Z,85.1
2017-07-15T07:54:31.793Z,85
2017-07-15T07:55:31.497Z,85.58
2017-07-15T07:56:31.754Z,85.04
2017-07-15T07:57:31.431Z,84.95
2017-07-15T07:58:31.722Z,84.95
2017-07-15T07:59:31.695Z,84.33
2017-07-15T08:00:31.688Z,84.37
2017-07-15T08:01:31.677Z,84.85
2017-07-15T08:02:31.653Z,84.47
2017-07-15T08:03:31.646Z,83.98
2017-07-15T08:04:31.295Z,84.23
2017-07-15T08:05:31.583Z,84.47
2017-07-15T08:06:31.569Z,83.7
2017-07-15T08:07:31.540Z,83.31
2017-07-15T08:08:31.523Z,83.16
2017-07-15T08:09:31.509Z,82.87
2017-07-15T08:10:31.183Z,82.53
2017-07-15T08:11:31.466Z,81.81
2017-07-15T08:12:31.447Z,81.37
2017-07-15T08:13:31.432Z,78.46
2017-07-15T08:14:31.417Z,76.09
2017-07-15T08:15:31.405Z,74.68
2017-07-15T08:16:31.390Z,72.99
2017-07-15T08:17:31.366Z,72.5
2017-07-15T08:18:31.356Z,71.64
2017-07-15T08:19:31.336Z,71.19
2017-07-15T08:20:31.319Z,70.38
2017-07-15T08:21:31.355Z,69.64
2017-07-15T08:22:31.282Z,69.61
2017-07-15T08:23:31.270Z,70.09
2017-07-15T08:24:31.251Z,69.42
2017-07-15T08:25:31.239Z,67.4
2017-07-15T08:26:31.223Z,68.52
2017-07-15T08:27:31.207Z,68.77
2017-07-15T08:28:31.196Z,69.25
2017-07-15T08:29:31.182Z,69.31
2017-07-15T08:30:31.309Z,69.76
2017-07-15T08:31:31.140Z,70.82
2017-07-15T08:32:31.125Z,71.84
2017-07-15T08:33:31.105Z,71.55
2017-07-15T08:34:31.091Z,72.52
2017-07-15T08:35:30.768Z,73.25
2017-07-15T08:36:31.056Z,73.44
2017-07-15T08:37:31.096Z,74.3
2017-07-15T08:38:31.022Z,74.3
2017-07-15T08:39:31.059Z,74.3
2017-07-15T08:40:30.999Z,74.98
2017-07-15T08:41:30.986Z,75.71
2017-07-15T08:42:30.946Z,75.9
2017-07-15T08:43:30.936Z,75.9
2017-07-15T08:44:30.921Z,76.57
2017-07-15T08:45:30.946Z,76.86
2017-07-15T08:46:30.881Z,76.67
2017-07-15T08:47:30.877Z,76.86
2017-07-15T08:48:30.849Z,76.86
2017-07-15T08:49:30.818Z,76.57
2017-07-15T08:50:30.806Z,76.48
2017-07-15T08:51:30.791Z,76.77
2017-07-15T08:52:30.769Z,75.87
2017-07-15T08:53:30.441Z,75.77
2017-07-15T08:54:30.738Z,76.06
2017-07-15T08:55:30.717Z,76.92
2017-07-15T08:56:30.700Z,76.73
2017-07-15T08:57:30.671Z,76.09
2017-07-15T08:58:30.654Z,76.39
2017-07-15T08:59:30.639Z,75.81
2017-07-15T09:00:30.358Z,75.62
2017-07-15T09:01:30.291Z,75.32
2017-07-15T09:02:30.586Z,75.42
2017-07-15T09:03:30.256Z,74.79
2017-07-15T09:04:30.234Z,74.69
2017-07-15T09:05:30.272Z,74.5
2017-07-15T09:06:30.514Z,74.3
2017-07-15T09:07:30.494Z,75.23
2017-07-15T09:08:30.471Z,75.42
2017-07-15T09:09:30.456Z,76.14
2017-07-15T09:10:30.434Z,75.75
2017-07-15T09:11:30.418Z,75.11
2017-07-15T09:12:30.398Z,74.09
2017-07-15T09:13:30.381Z,71.28
2017-07-15T09:14:30.056Z,69.57
2017-07-15T09:15:30.358Z,68.74
2017-07-15T09:16:30.027Z,67.88
2017-07-15T09:17:30.324Z,67.43
2017-07-15T09:18:30.000Z,64.66
2017-07-15T09:19:30.286Z,63.98
2017-07-15T09:20:30.270Z,63.21
2017-07-15T09:21:30.265Z,64.08
2017-07-15T09:22:30.237Z,63.43
2017-07-15T09:23:30.227Z,62.79
2017-07-15T09:24:30.216Z,61.37
2017-07-15T09:25:30.197Z,60.89
2017-07-15T09:26:30.178Z,61.08
2017-07-15T09:27:30.169Z,61.27
2017-07-15T09:28:30.156Z,60.28
2017-07-15T09:29:30.140Z,60.57
2017-07-15T09:30:30.120Z,60.35
2017-07-15T09:31:30.154Z,61.19
2017-07-15T09:32:30.097Z,61.86
2017-07-15T09:33:30.078Z,61.74
2017-07-15T09:34:30.074Z,62.02
2017-07-15T09:35:30.049Z,62.48
2017-07-15T09:36:30.032Z,62.83
2017-07-15T09:37:30.024Z,63.79
2017-07-15T09:38:29.999Z,63.76
2017-07-15T09:39:29.993Z,64.15
2017-07-15T09:40:29.969Z,64.98
2017-07-15T09:41:29.959Z,65.91
2017-07-15T09:42:29.938Z,67.03
2017-07-15T09:43:29.919Z,67.42
2017-07-15T09:44:29.901Z,67.99
2017-07-15T09:45:29.885Z,69.15
2017-07-15T09:46:29.871Z,69.5
2017-07-15T09:47:29.859Z,70.17
2017-07-15T09:48:29.830Z,70.46
2017-07-15T09:49:29.507Z,71.14
2017-07-15T09:50:29.791Z,71.04
2017-07-15T09:51:29.776Z,70.84
2017-07-15T09:52:29.763Z,70.94
2017-07-15T09:53:29.755Z,70.37
2017-07-15T09:54:29.772Z,70.01
2017-07-15T09:55:29.709Z,69.15
2017-07-15T09:56:29.705Z,68.48
2017-07-15T09:57:29.670Z,68.22
2017-07-15T09:58:29.708Z,68.13
2017-07-15T09:59:29.640Z,67.55
2017-07-15T10:00:29.620Z,67.19
2017-07-15T10:01:29.605Z,66.81
2017-07-15T10:02:29.608Z,66.14
2017-07-15T10:03:29.269Z,64.34
2017-07-15T10:04:29.555Z,64.08
2017-07-15T10:05:29.542Z,62.38
2017-07-15T10:06:29.518Z,61.03
2017-07-15T10:07:29.502Z,61.25
2017-07-15T10:08:29.494Z,61.16
2017-07-15T10:09:29.162Z,60.48
2017-07-15T10:10:29.458Z,59.61
2017-07-15T10:11:29.446Z,58.94
2017-07-15T10:12:29.421Z,58.17
2017-07-15T10:13:29.417Z,58.58
2017-07-15T10:14:29.397Z,58.39
2017-07-15T10:15:29.377Z,56
2017-07-15T10:16:29.416Z,55.07
2017-07-15T10:17:29.368Z,53.81
2017-07-15T10:18:29.076Z,54.68
2017-07-15T10:19:29.369Z,55.16
2017-07-15T10:20:29.308Z,55.26
2017-07-15T10:21:29.288Z,55.26
2017-07-15T10:22:28.965Z,52.48
2017-07-15T10:23:28.953Z,52.12
2017-07-15T10:24:29.253Z,52.12
2017-07-15T10:25:29.239Z,52.12
2017-07-15T10:26:29.229Z,52.29
2017-07-15T10:27:29.216Z,53.16
2017-07-15T10:28:29.252Z,53.35
2017-07-15T10:29:29.196Z,52.61
2017-07-15T10:30:29.174Z,52.14
2017-07-15T10:31:29.162Z,50.79
2017-07-15T10:32:28.839Z,50.72
2017-07-15T10:33:29.143Z,50.72
2017-07-15T10:34:29.135Z,49.58
2017-07-15T10:35:29.121Z,49.58
2017-07-15T10:36:29.106Z,49.32
2017-07-15T10:37:29.096Z,49.02
2017-07-15T10:38:29.086Z,48.37
2017-07-15T10:39:29.075Z,47.6
2017-07-15T10:40:29.060Z,47.79
2017-07-15T10:41:29.058Z,47.42
2017-07-15T10:42:29.042Z,46.67
2017-07-15T10:43:29.031Z,46.77
2017-07-15T10:44:29.039Z,46.79
2017-07-15T10:45:29.016Z,46.11
2017-07-15T10:46:28.701Z,46.21
2017-07-15T10:47:28.994Z,46.01
2017-07-15T10:48:28.991Z,46.21
2017-07-15T10:49:28.981Z,46.58
2017-07-15T10:50:28.973Z,46.84
2017-07-15T10:51:28.968Z,47.2
2017-07-15T10:52:28.947Z,48.25
2017-07-15T10:53:28.939Z,49.39
2017-07-15T10:54:28.931Z,49.95
2017-07-15T10:55:28.923Z,50.7
2017-07-15T10:56:28.910Z,51.35
2017-07-15T10:57:28.892Z,52.12
2017-07-15T10:58:28.893Z,51.54
2017-07-15T10:59:28.870Z,51.44
2017-07-15T11:00:28.857Z,51.42
2017-07-15T11:01:28.874Z,51.71
2017-07-15T11:02:28.523Z,51.87
2017-07-15T11:03:28.818Z,53.59
2017-07-15T11:04:28.808Z,53.78
2017-07-15T11:05:28.789Z,54.27
2017-07-15T11:06:28.832Z,54.84
2017-07-15T11:07:28.771Z,55.23
2017-07-15T11:08:28.750Z,54.65
2017-07-15T11:09:28.742Z,54.65
2017-07-15T11:10:28.729Z,54.68
2017-07-15T11:11:28.713Z,54.68
2017-07-15T11:12:28.693Z,54.87
2017-07-15T11:13:28.678Z,55.13
2017-07-15T11:14:28.675Z,55.62
2017-07-15T11:15:28.656Z,55.62
2017-07-15T11:16:28.638Z,55.62
2017-07-15T11:17:28.628Z,55.78
2017-07-15T11:18:28.608Z,56.56
2017-07-15T11:19:28.590Z,55.59
2017-07-15T11:20:28.578Z,55.78
2017-07-15T11:21:28.567Z,56.24
2017-07-15T11:22:28.546Z,56.98
2017-07-15T11:23:28.525Z,58.04
2017-07-15T11:24:28.521Z,58.14
2017-07-15T11:25:28.202Z,58.04
2017-07-15T11:26:28.486Z,59.1
2017-07-15T11:27:28.468Z,59.07
2017-07-15T11:28:28.449Z,58.88
2017-07-15T11:29:28.440Z,58.88
2017-07-15T11:30:28.112Z,59.55
2017-07-15T11:31:28.415Z,59.62
2017-07-15T11:32:28.441Z,59.14
2017-07-15T11:33:28.369Z,59.43
2017-07-15T11:34:28.350Z,59.43
2017-07-15T11:35:28.024Z,59.72
2017-07-15T11:36:28.328Z,58.88
2017-07-15T11:37:28.304Z,58.49
2017-07-15T11:38:28.287Z,58.78
2017-07-15T11:39:28.274Z,58.59
2017-07-15T11:40:28.258Z,58.49
2017-07-15T11:41:28.243Z,57.85
2017-07-15T11:42:28.219Z,57.07
2017-07-15T11:43:28.203Z,57.07
2017-07-15T11:44:28.180Z,57.27
2017-07-15T11:45:28.170Z,57.07
2017-07-15T11:46:28.157Z,57.1
2017-07-15T11:47:28.136Z,56.81
2017-07-15T11:48:27.812Z,56.43
2017-07-15T11:49:28.105Z,56.04
2017-07-15T11:50:28.087Z,56.33
2017-07-15T11:51:28.067Z,56.04
2017-07-15T11:52:28.051Z,55.76
2017-07-15T11:53:28.032Z,56.52
2017-07-15T11:54:27.716Z,57.01
2017-07-15T11:55:28.064Z,56.33
2017-07-15T11:56:27.677Z,56.72
2017-07-15T11:57:27.971Z,56.62
2017-07-15T11:58:27.645Z,56.43
2017-07-15T11:59:27.954Z,56.52
2017-07-15T12:00:27.923Z,55.85
2017-07-15T12:01:27.917Z,55.56
2017-07-15T12:02:27.908Z,56.72
2017-07-15T12:03:27.882Z,56.04
2017-07-15T12:04:27.853Z,55.76
2017-07-15T12:05:27.839Z,56.04
2017-07-15T12:06:27.824Z,55.4
2017-07-15T12:07:27.811Z,55.3
2017-07-15T12:08:27.799Z,54.62
2017-07-15T12:09:27.784Z,54.53
2017-07-15T12:10:27.454Z,54.72
2017-07-15T12:11:27.747Z,54.43
2017-07-15T12:12:27.731Z,54.72
2017-07-15T12:13:27.721Z,54.33
2017-07-15T12:14:27.704Z,53.88
2017-07-15T12:15:27.678Z,53.2
2017-07-15T12:16:27.664Z,53.11
2017-07-15T12:17:27.649Z,52.91
2017-07-15T12:18:27.635Z,52.33
2017-07-15T12:19:27.316Z,53.27
2017-07-15T12:20:27.603Z,53.56
2017-07-15T12:21:27.593Z,54.43
2017-07-15T12:22:27.567Z,54.53
2017-07-15T12:23:27.549Z,55.2
2017-07-15T12:24:27.535Z,54.91
2017-07-15T12:25:27.525Z,54.88
2017-07-15T12:26:27.505Z,55.46
2017-07-15T12:27:27.490Z,55.94
2017-07-15T12:28:27.474Z,55.88
2017-07-15T12:29:27.453Z,55.76
2017-07-15T12:30:27.438Z,55.85
2017-07-15T12:31:27.428Z,55.3
2017-07-15T12:32:27.411Z,55.49
2017-07-15T12:33:27.388Z,54.53
2017-07-15T12:34:27.379Z,54.05
2017-07-15T12:35:27.390Z,54.72
2017-07-15T12:36:27.339Z,53.75
2017-07-15T12:37:27.320Z,53.85
2017-07-15T12:38:27.301Z,52.79
2017-07-15T12:39:27.287Z,52.98
2017-07-15T12:40:26.962Z,53.05
2017-07-15T12:41:27.252Z,52.89
2017-07-15T12:42:27.257Z,53.25
2017-07-15T12:43:27.236Z,52.69
2017-07-15T12:44:27.205Z,52.89
2017-07-15T12:45:27.188Z,52.95
2017-07-15T12:46:27.172Z,53.15
2017-07-15T12:47:27.155Z,53.73
2017-07-15T12:48:27.135Z,53.63
2017-07-15T12:49:27.119Z,53.17
2017-07-15T12:50:27.105Z,53.08
2017-07-15T12:51:27.085Z,53.27
2017-07-15T12:52:27.079Z,53.17
2017-07-15T12:53:27.052Z,53.17
2017-07-15T12:54:27.040Z,52.69
2017-07-15T12:55:27.024Z,53.27